| time (UTC) | temp C | wind direction | speed KPH | gust KPH | rain 1hr cm | rain 24hr cm | rain mn cm | humidity % | barometer mb |
| 20260503014153 | 18 | 349 | 3.2 | 4.8 | 0.00 | 0.00 | 0.00 | 35 | 1016.9 |
| 20260503013650 | 18 | 349 | 3.2 | 4.8 | 0.00 | 0.00 | 0.00 | 36 | 1017.0 |
| 20260503013147 | 18 | 355 | 3.2 | 4.8 | 0.00 | 0.00 | 0.00 | 36 | 1016.9 |
| 20260503012644 | 18 | 358 | 8.0 | 9.7 | 0.00 | 0.00 | 0.00 | 35 | 1017.0 |
| 20260503012141 | 18 | 343 | 4.8 | 4.8 | 0.00 | 0.00 | 0.00 | 36 | 1017.0 |
| 20260503011638 | 18 | 338 | 4.8 | 4.8 | 0.00 | 0.00 | 0.00 | 35 | 1017.2 |
| 20260503011135 | 18 | 293 | 4.8 | 4.8 | 0.00 | 0.00 | 0.00 | 35 | 1017.4 |
| 20260503010631 | 18 | 338 | 1.6 | 1.6 | 0.00 | 0.00 | 0.00 | 35 | 1017.2 |
| 20260503010129 | 18 | 335 | 1.6 | 3.2 | 0.00 | 0.00 | 0.00 | 36 | 1016.9 |
| 20260503005625 | 18 | 337 | 1.6 | 1.6 | 0.00 | 0.00 | 0.00 | 35 | 1017.0 |
| 20260503005123 | 18 | 18 | 3.2 | 3.2 | 0.00 | 0.00 | 0.00 | 35 | 1017.4 |
| 20260503004619 | 18 | 343 | 3.2 | 3.2 | 0.00 | 0.00 | 0.00 | 35 | 1017.5 |
| 20260503004118 | 18 | 280 | 0.0 | 0.0 | 0.00 | 0.00 | 0.00 | 35 | 1017.3 |
| 20260503003614 | 18 | 261 | 0.0 | 0.0 | 0.00 | 0.00 | 0.00 | 35 | 1017.5 |
| 20260503003111 | 19 | 253 | 1.6 | 1.6 | 0.00 | 0.00 | 0.00 | 34 | 1017.3 |
| 20260503002608 | 19 | 287 | 0.0 | 1.6 | 0.00 | 0.00 | 0.00 | 34 | 1017.5 |
| 20260503002104 | 20 | 311 | 4.8 | 4.8 | 0.00 | 0.00 | 0.00 | 34 | 1017.6 |
| 20260503001601 | 20 | 336 | 3.2 | 3.2 | 0.00 | 0.00 | 0.00 | 35 | 1017.6 |
| 20260503001058 | 20 | 298 | 0.0 | 1.6 | 0.00 | 0.00 | 0.00 | 34 | 1017.6 |
| 20260503000555 | 20 | 291 | 6.4 | 6.4 | 0.00 | 0.00 | 0.00 | 34 | 1017.5 |
| 20260503000052 | 19 | 263 | 6.4 | 6.4 | 0.00 | 0.00 | 0.00 | 35 | 1017.7 |
| 20260502235548 | 20 | 289 | 9.7 | 11.3 | 0.00 | 0.00 | 0.00 | 34 | 1017.9 |
| 20260502235047 | 20 | 262 | 8.0 | 9.7 | 0.00 | 0.00 | 0.00 | 34 | 1017.9 |
| 20260502234543 | 20 | 237 | 12.9 | 16.1 | 0.00 | 0.00 | 0.00 | 36 | 1017.8 |
| 20260502234041 | 20 | 314 | 0.0 | 1.6 | 0.00 | 0.00 | 0.00 | 34 | 1018.0 |
| 20260502233540 | 20 | 281 | 0.0 | 0.0 | 0.00 | 0.00 | 0.00 | 34 | 1017.9 |
| 20260502233038 | 19 | 19 | 8.0 | 9.7 | 0.00 | 0.00 | 0.00 | 35 | 1017.9 |
| 20260502232534 | 20 | 307 | 6.4 | 9.7 | 0.00 | 0.00 | 0.00 | 36 | 1018.1 |
| 20260502232031 | 20 | 340 | 1.6 | 3.2 | 0.00 | 0.00 | 0.00 | 35 | 1018.1 |
| 20260502231528 | 19 | 202 | 3.2 | 3.2 | 0.00 | 0.00 | 0.00 | 36 | 1018.4 |
| 20260502231026 | 19 | 228 | 0.0 | 0.0 | 0.00 | 0.00 | 0.00 | 35 | 1018.4 |
| 20260502230524 | 18 | 347 | 3.2 | 4.8 | 0.00 | 0.00 | 0.00 | 37 | 1018.2 |
| 20260502230023 | 18 | 86 | 1.6 | 4.8 | 0.00 | 0.00 | 0.00 | 36 | 1018.4 |
| 20260502225522 | 19 | 37 | 8.0 | 11.3 | 0.00 | 0.00 | 0.00 | 37 | 1018.4 |
| 20260502225020 | 18 | 218 | 1.6 | 3.2 | 0.00 | 0.00 | 0.00 | 36 | 1018.2 |
| 20260502224516 | 19 | 200 | 3.2 | 4.8 | 0.00 | 0.00 | 0.00 | 35 | 1018.6 |
| 20260502224013 | 20 | 200 | 3.2 | 3.2 | 0.00 | 0.00 | 0.00 | 35 | 1018.6 |
| 20260502223511 | 18 | 101 | 1.6 | 1.6 | 0.00 | 0.00 | 0.00 | 36 | 1018.6 |
| 20260502223009 | 19 | 347 | 4.8 | 4.8 | 0.00 | 0.00 | 0.00 | 36 | 1018.6 |
| 20260502222506 | 19 | 310 | 9.7 | 11.3 | 0.00 | 0.00 | 0.00 | 36 | 1018.8 |
| 20260502222002 | 20 | 91 | 3.2 | 3.2 | 0.00 | 0.00 | 0.00 | 35 | 1018.8 |
| 20260502221458 | 19 | 307 | 3.2 | 3.2 | 0.00 | 0.00 | 0.00 | 36 | 1019.0 |
| 20260502220955 | 18 | 355 | 4.8 | 4.8 | 0.00 | 0.00 | 0.00 | 37 | 1019.0 |
| 20260502220451 | 18 | 349 | 11.3 | 12.9 | 0.00 | 0.00 | 0.00 | 37 | 1019.2 |
| 20260502215948 | 18 | 21 | 3.2 | 4.8 | 0.00 | 0.00 | 0.00 | 37 | 1019.1 |
| 20260502215445 | 19 | 25 | 6.4 | 9.7 | 0.00 | 0.00 | 0.00 | 37 | 1019.1 |
| 20260502214942 | 20 | 13 | 11.3 | 14.5 | 0.00 | 0.00 | 0.00 | 36 | 1019.1 |
| 20260502214439 | 20 | 26 | 9.7 | 11.3 | 0.00 | 0.00 | 0.00 | 36 | 1019.1 |
| 20260502213936 | 19 | 116 | 6.4 | 6.4 | 0.00 | 0.00 | 0.00 | 36 | 1019.2 |
| 20260502213433 | 20 | 86 | 6.4 | 9.7 | 0.00 | 0.00 | 0.00 | 37 | 1019.2 |
| 20260502212931 | 20 | 329 | 4.8 | 4.8 | 0.00 | 0.00 | 0.00 | 36 | 1019.5 |
| 20260502212430 | 18 | 239 | 0.0 | 0.0 | 0.00 | 0.00 | 0.00 | 38 | 1019.3 |
| 20260502211927 | 20 | 359 | 14.5 | 16.1 | 0.00 | 0.00 | 0.00 | 37 | 1019.5 |
| 20260502211422 | 20 | 18 | 4.8 | 4.8 | 0.00 | 0.00 | 0.00 | 37 | 1019.3 |
| 20260502210920 | 20 | 30 | 4.8 | 4.8 | 0.00 | 0.00 | 0.00 | 36 | 1019.3 |
| 20260502210417 | 19 | 28 | 9.7 | 12.9 | 0.00 | 0.00 | 0.00 | 37 | 1019.6 |
| 20260502205914 | 19 | 98 | 6.4 | 9.7 | 0.00 | 0.00 | 0.00 | 37 | 1019.7 |
| 20260502205410 | 20 | 28 | 6.4 | 9.7 | 0.00 | 0.00 | 0.00 | 37 | 1019.7 |
| 20260502204907 | 19 | 358 | 8.0 | 9.7 | 0.00 | 0.00 | 0.00 | 36 | 1019.8 |
| 20260502204404 | 18 | 298 | 3.2 | 4.8 | 0.00 | 0.00 | 0.00 | 38 | 1019.8 |
| 20260502203902 | 18 | 35 | 4.8 | 4.8 | 0.00 | 0.00 | 0.00 | 39 | 1019.9 |
| 20260502203359 | 17 | 65 | 4.8 | 4.8 | 0.00 | 0.00 | 0.00 | 38 | 1020.0 |
| 20260502202854 | 17 | 342 | 4.8 | 6.4 | 0.00 | 0.00 | 0.00 | 38 | 1020.0 |
| 20260502202352 | 17 | 1 | 12.9 | 14.5 | 0.00 | 0.00 | 0.00 | 38 | 1020.0 |
| 20260502201850 | 18 | 15 | 8.0 | 11.3 | 0.00 | 0.00 | 0.00 | 38 | 1020.0 |
| 20260502201346 | 18 | 349 | 12.9 | 14.5 | 0.00 | 0.00 | 0.00 | 37 | 1020.1 |
| 20260502200842 | 18 | 291 | 6.4 | 9.7 | 0.00 | 0.00 | 0.00 | 38 | 1020.1 |
| 20260502200338 | 18 | 330 | 14.5 | 14.5 | 0.00 | 0.00 | 0.00 | 37 | 1020.0 |
| 20260502195837 | 17 | 338 | 0.0 | 0.0 | 0.00 | 0.00 | 0.00 | 38 | 1020.1 |
| 20260502195333 | 18 | 17 | 11.3 | 12.9 | 0.00 | 0.00 | 0.00 | 37 | 1020.2 |
| 20260502194830 | 18 | 355 | 9.7 | 11.3 | 0.00 | 0.00 | 0.00 | 37 | 1020.2 |
| 20260502194327 | 18 | 319 | 6.4 | 6.4 | 0.00 | 0.00 | 0.00 | 37 | 1020.3 |
| 20260502193822 | 18 | 354 | 9.7 | 14.5 | 0.00 | 0.00 | 0.00 | 37 | 1020.3 |
| 20260502193320 | 17 | 350 | 4.8 | 4.8 | 0.00 | 0.00 | 0.00 | 38 | 1020.4 |
| 20260502192815 | 18 | 5 | 9.7 | 11.3 | 0.00 | 0.00 | 0.00 | 37 | 1020.4 |
| 20260502192313 | 18 | 359 | 12.9 | 14.5 | 0.00 | 0.00 | 0.00 | 37 | 1020.7 |
| 20260502191810 | 18 | 305 | 3.2 | 4.8 | 0.00 | 0.00 | 0.00 | 37 | 1020.6 |
| 20260502191308 | 18 | 46 | 3.2 | 3.2 | 0.00 | 0.00 | 0.00 | 37 | 1020.7 |
| 20260502190804 | 18 | 305 | 1.6 | 1.6 | 0.00 | 0.00 | 0.00 | 38 | 1020.8 |
| 20260502190302 | 19 | 24 | 9.7 | 11.3 | 0.00 | 0.00 | 0.00 | 37 | 1020.8 |
| 20260502185757 | 18 | 281 | 3.2 | 3.2 | 0.00 | 0.00 | 0.00 | 38 | 1020.7 |
| 20260502185253 | 18 | 7 | 12.9 | 16.1 | 0.00 | 0.00 | 0.00 | 36 | 1020.8 |
| 20260502184750 | 18 | 34 | 1.6 | 3.2 | 0.00 | 0.00 | 0.00 | 37 | 1020.9 |
| 20260502184246 | 18 | 354 | 0.0 | 0.0 | 0.00 | 0.00 | 0.00 | 37 | 1021.0 |
| 20260502183743 | 18 | 69 | 6.4 | 9.7 | 0.00 | 0.00 | 0.00 | 37 | 1021.0 |
| 20260502183239 | 17 | 256 | 0.0 | 0.0 | 0.00 | 0.00 | 0.00 | 39 | 1021.1 |
| 20260502182734 | 17 | 357 | 6.4 | 9.7 | 0.00 | 0.00 | 0.00 | 39 | 1021.0 |
| 20260502182230 | 18 | 0 | 1.6 | 1.6 | 0.00 | 0.00 | 0.00 | 39 | 1021.2 |
| 20260502181726 | 17 | 65 | 4.8 | 6.4 | 0.00 | 0.00 | 0.00 | 39 | 1021.1 |
| 20260502181226 | 17 | 282 | 0.0 | 0.0 | 0.00 | 0.00 | 0.00 | 40 | 1021.4 |
| 20260502180722 | 17 | 355 | 12.9 | 16.1 | 0.00 | 0.00 | 0.00 | 39 | 1021.4 |
| 20260502180220 | 17 | 44 | 8.0 | 12.9 | 0.00 | 0.00 | 0.00 | 40 | 1021.0 |
| 20260502170143 | 17 | 27 | 9.7 | 12.9 | 0.00 | 0.00 | 0.00 | 40 | 1021.5 |
| 20260502164124 | 16 | 68 | 16.1 | 20.9 | 0.00 | 0.00 | 0.00 | 40 | 1021.4 |
| 20260502163620 | 16 | 36 | 8.0 | 11.3 | 0.00 | 0.00 | 0.00 | 41 | 1021.4 |
| 20260502163117 | 16 | 34 | 12.9 | 14.5 | 0.00 | 0.00 | 0.00 | 40 | 1021.5 |
| 20260502162614 | 16 | 47 | 9.7 | 12.9 | 0.00 | 0.00 | 0.00 | 41 | 1021.9 |
| 20260502162111 | 16 | 38 | 12.9 | 14.5 | 0.00 | 0.00 | 0.00 | 41 | 1021.2 |
| 20260502161608 | 16 | 39 | 11.3 | 16.1 | 0.00 | 0.00 | 0.00 | 41 | 1021.3 |
| 20260502161105 | 16 | 42 | 6.4 | 9.7 | 0.00 | 0.00 | 0.00 | 41 | 1021.3 |
| 20260502160603 | 15 | 48 | 9.7 | 14.5 | 0.00 | 0.00 | 0.00 | 42 | 1021.5 |
| 20260502152011 | 14 | 57 | 14.5 | 16.1 | 0.00 | 0.00 | 0.00 | 43 | 1021.5 |
| 20260502151507 | 15 | 58 | 4.8 | 6.4 | 0.00 | 0.00 | 0.00 | 43 | 1021.3 |
| 20260502151004 | 15 | 119 | 11.3 | 16.1 | 0.00 | 0.00 | 0.00 | 43 | 1021.3 |
| 20260502150501 | 13 | 98 | 6.4 | 11.3 | 0.00 | 0.00 | 0.00 | 44 | 1021.1 |
| 20260502130346 | 8 | 11 | 11.3 | 12.9 | 0.00 | 0.00 | 0.00 | 54 | 1020.3 |
| 20260502123329 | 7 | 319 | 3.2 | 3.2 | 0.00 | 0.00 | 0.00 | 56 | 1019.8 |
| 20260502122826 | 7 | 354 | 6.4 | 6.4 | 0.00 | 0.00 | 0.00 | 56 | 1020.0 |
| 20260502122321 | 6 | 8 | 6.4 | 6.4 | 0.00 | 0.00 | 0.00 | 56 | 1019.7 |
| 20260502121821 | 6 | 8 | 9.7 | 11.3 | 0.00 | 0.00 | 0.00 | 57 | 1019.5 |
| 20260502121317 | 6 | 350 | 9.7 | 11.3 | 0.00 | 0.00 | 0.00 | 56 | 1019.9 |
| 20260502120814 | 6 | 354 | 8.0 | 11.3 | 0.00 | 0.00 | 0.00 | 56 | 1019.7 |
| 20260502120311 | 6 | 322 | 8.0 | 9.7 | 0.00 | 0.00 | 0.00 | 56 | 1019.7 |
| 20260502115808 | 6 | 328 | 9.7 | 9.7 | 0.00 | 0.00 | 0.00 | 56 | 1019.6 |
| 20260502115306 | 6 | 339 | 6.4 | 6.4 | 0.00 | 0.00 | 0.00 | 57 | 1019.2 |
| 20260502114801 | 6 | 318 | 9.7 | 11.3 | 0.00 | 0.00 | 0.00 | 56 | 1019.1 |
| 20260502114258 | 5 | 312 | 6.4 | 9.7 | 0.00 | 0.00 | 0.00 | 58 | 1019.1 |
| 20260502113755 | 5 | 317 | 4.8 | 4.8 | 0.00 | 0.00 | 0.00 | 59 | 1019.2 |
| 20260502113253 | 5 | 300 | 6.4 | 6.4 | 0.00 | 0.00 | 0.00 | 59 | 1019.1 |
| 20260502112751 | 5 | 305 | 4.8 | 4.8 | 0.00 | 0.00 | 0.00 | 58 | 1019.0 |
| 20260502112248 | 5 | 296 | 4.8 | 4.8 | 0.00 | 0.00 | 0.00 | 57 | 1018.9 |
| 20260502111745 | 5 | 313 | 6.4 | 6.4 | 0.00 | 0.00 | 0.00 | 56 | 1018.9 |
| 20260502111243 | 6 | 291 | 4.8 | 4.8 | 0.00 | 0.00 | 0.00 | 56 | 1018.8 |
| 20260502110740 | 6 | 283 | 4.8 | 4.8 | 0.00 | 0.00 | 0.00 | 55 | 1018.9 |
| 20260502110238 | 6 | 292 | 4.8 | 4.8 | 0.00 | 0.00 | 0.00 | 55 | 1018.8 |
| 20260502105736 | 6 | 282 | 9.7 | 11.3 | 0.00 | 0.00 | 0.00 | 55 | 1018.9 |
| 20260502105232 | 6 | 270 | 11.3 | 12.9 | 0.00 | 0.00 | 0.00 | 54 | 1018.7 |
| 20260502104730 | 6 | 281 | 9.7 | 11.3 | 0.00 | 0.00 | 0.00 | 53 | 1018.7 |
| 20260502104227 | 7 | 293 | 6.4 | 6.4 | 0.00 | 0.00 | 0.00 | 52 | 1018.6 |
| 20260502103725 | 7 | 289 | 8.0 | 9.7 | 0.00 | 0.00 | 0.00 | 51 | 1018.4 |
| 20260502103222 | 7 | 311 | 9.7 | 11.3 | 0.00 | 0.00 | 0.00 | 51 | 1018.6 |
| 20260502102719 | 8 | 283 | 9.7 | 11.3 | 0.00 | 0.00 | 0.00 | 50 | 1018.2 |
| 20260502102215 | 8 | 293 | 9.7 | 12.9 | 0.00 | 0.00 | 0.00 | 50 | 1018.1 |
| 20260502101713 | 7 | 307 | 8.0 | 11.3 | 0.00 | 0.00 | 0.00 | 51 | 1018.1 |
| 20260502101212 | 8 | 296 | 8.0 | 9.7 | 0.00 | 0.00 | 0.00 | 50 | 1018.2 |
| 20260502100709 | 7 | 285 | 9.7 | 11.3 | 0.00 | 0.00 | 0.00 | 50 | 1018.1 |
| 20260502100208 | 7 | 294 | 11.3 | 11.3 | 0.00 | 0.00 | 0.00 | 50 | 1018.2 |
| 20260502091142 | 7 | 268 | 12.9 | 12.9 | 0.00 | 0.00 | 0.00 | 48 | 1017.5 |
| 20260502090638 | 7 | 263 | 12.9 | 14.5 | 0.00 | 0.00 | 0.00 | 49 | 1017.4 |
| 20260502090136 | 7 | 260 | 11.3 | 11.3 | 0.00 | 0.00 | 0.00 | 49 | 1017.3 |
| 20260502071533 | 8 | 264 | 11.3 | 12.9 | 0.00 | 0.00 | 0.00 | 43 | 1017.0 |
| 20260502071031 | 8 | 266 | 11.3 | 12.9 | 0.00 | 0.00 | 0.00 | 43 | 1017.3 |
| 20260502070529 | 8 | 272 | 11.3 | 11.3 | 0.00 | 0.00 | 0.00 | 43 | 1017.0 |
| 20260502070027 | 9 | 270 | 9.7 | 11.3 | 0.00 | 0.00 | 0.00 | 42 | 1017.0 |
| 20260502065526 | 10 | 275 | 11.3 | 12.9 | 0.00 | 0.00 | 0.00 | 41 | 1017.4 |
| 20260502065023 | 10 | 273 | 11.3 | 12.9 | 0.00 | 0.00 | 0.00 | 41 | 1017.2 |
| 20260502064521 | 10 | 276 | 11.3 | 11.3 | 0.00 | 0.00 | 0.00 | 40 | 1017.3 |
| 20260502064018 | 10 | 280 | 9.7 | 11.3 | 0.00 | 0.00 | 0.00 | 41 | 1017.3 |
| 20260502063515 | 10 | 277 | 9.7 | 11.3 | 0.00 | 0.00 | 0.00 | 40 | 1017.3 |
| 20260502063013 | 10 | 286 | 8.0 | 9.7 | 0.00 | 0.00 | 0.00 | 41 | 1017.2 |
| 20260502062509 | 9 | 276 | 11.3 | 12.9 | 0.00 | 0.00 | 0.00 | 41 | 1017.4 |
| 20260502062009 | 8 | 308 | 9.7 | 9.7 | 0.00 | 0.00 | 0.00 | 42 | 1017.3 |
| 20260502061506 | 9 | 280 | 4.8 | 6.4 | 0.00 | 0.00 | 0.00 | 41 | 1017.3 |
| 20260502061003 | 9 | 281 | 3.2 | 3.2 | 0.00 | 0.00 | 0.00 | 41 | 1017.4 |
| 20260502060457 | 10 | 292 | 6.4 | 6.4 | 0.00 | 0.00 | 0.00 | 39 | 1016.9 |
| 20260502055954 | 10 | 268 | 6.4 | 6.4 | 0.00 | 0.00 | 0.00 | 39 | 1017.0 |
| 20260502055452 | 9 | 272 | 6.4 | 6.4 | 0.00 | 0.00 | 0.00 | 39 | 1016.9 |
| 20260502054946 | 10 | 261 | 8.0 | 9.7 | 0.00 | 0.00 | 0.00 | 39 | 1016.8 |
| 20260502054444 | 10 | 271 | 6.4 | 6.4 | 0.00 | 0.00 | 0.00 | 39 | 1016.9 |
| 20260502053941 | 10 | 267 | 8.0 | 9.7 | 0.00 | 0.00 | 0.00 | 38 | 1016.7 |
| 20260502053437 | 10 | 275 | 8.0 | 9.7 | 0.00 | 0.00 | 0.00 | 39 | 1016.9 |
| 20260502052935 | 10 | 272 | 6.4 | 6.4 | 0.00 | 0.00 | 0.00 | 38 | 1016.8 |
| 20260502052433 | 10 | 277 | 6.4 | 6.4 | 0.00 | 0.00 | 0.00 | 38 | 1016.8 |
| 20260502051932 | 11 | 276 | 8.0 | 9.7 | 0.00 | 0.00 | 0.00 | 37 | 1017.0 |
| 20260502051429 | 10 | 271 | 8.0 | 9.7 | 0.00 | 0.00 | 0.00 | 37 | 1016.9 |
| 20260502050926 | 11 | 271 | 8.0 | 9.7 | 0.00 | 0.00 | 0.00 | 37 | 1016.7 |
| 20260502050423 | 11 | 267 | 8.0 | 9.7 | 0.00 | 0.00 | 0.00 | 35 | 1017.0 |
| 20260502045920 | 11 | 264 | 11.3 | 11.3 | 0.00 | 0.00 | 0.00 | 35 | 1016.8 |
| 20260502045416 | 11 | 267 | 9.7 | 9.7 | 0.00 | 0.00 | 0.00 | 36 | 1016.8 |
| 20260502044914 | 11 | 264 | 6.4 | 6.4 | 0.00 | 0.00 | 0.00 | 37 | 1016.6 |
| 20260502044409 | 11 | 255 | 8.0 | 9.7 | 0.00 | 0.00 | 0.00 | 37 | 1016.8 |
| 20260502043906 | 11 | 258 | 8.0 | 9.7 | 0.00 | 0.00 | 0.00 | 36 | 1016.6 |
| 20260502043404 | 11 | 252 | 8.0 | 9.7 | 0.00 | 0.00 | 0.00 | 36 | 1016.7 |
| 20260502042903 | 11 | 251 | 8.0 | 9.7 | 0.00 | 0.00 | 0.00 | 36 | 1016.8 |
| 20260502042401 | 11 | 253 | 8.0 | 9.7 | 0.00 | 0.00 | 0.00 | 35 | 1016.7 |
| 20260502041858 | 12 | 261 | 8.0 | 9.7 | 0.00 | 0.00 | 0.00 | 35 | 1016.5 |
| 20260502041355 | 12 | 262 | 6.4 | 6.4 | 0.00 | 0.00 | 0.00 | 35 | 1016.6 |
| 20260502040853 | 13 | 273 | 6.4 | 6.4 | 0.00 | 0.00 | 0.00 | 34 | 1016.7 |
| 20260502040349 | 13 | 277 | 8.0 | 9.7 | 0.00 | 0.00 | 0.00 | 33 | 1016.7 |
| 20260502035845 | 13 | 281 | 8.0 | 9.7 | 0.00 | 0.00 | 0.00 | 34 | 1016.6 |
| 20260502035342 | 13 | 279 | 6.4 | 6.4 | 0.00 | 0.00 | 0.00 | 33 | 1016.6 |
| 20260502034839 | 14 | 284 | 4.8 | 4.8 | 0.00 | 0.00 | 0.00 | 33 | 1016.6 |
| 20260502034338 | 14 | 273 | 6.4 | 6.4 | 0.00 | 0.00 | 0.00 | 32 | 1016.8 |
| 20260502033836 | 15 | 268 | 8.0 | 9.7 | 0.00 | 0.00 | 0.00 | 30 | 1016.5 |
| 20260502033333 | 15 | 284 | 6.4 | 9.7 | 0.00 | 0.00 | 0.00 | 31 | 1016.4 |
| 20260502032830 | 15 | 299 | 6.4 | 6.4 | 0.00 | 0.00 | 0.00 | 31 | 1016.7 |
| 20260502032326 | 16 | 276 | 8.0 | 9.7 | 0.00 | 0.00 | 0.00 | 29 | 1016.4 |
| 20260502031824 | 15 | 281 | 6.4 | 6.4 | 0.00 | 0.00 | 0.00 | 30 | 1016.3 |
| 20260502031322 | 16 | 283 | 4.8 | 4.8 | 0.00 | 0.00 | 0.00 | 30 | 1016.3 |
| 20260502030820 | 17 | 253 | 8.0 | 9.7 | 0.00 | 0.00 | 0.00 | 28 | 1016.2 |
| 20260502030318 | 17 | 254 | 8.0 | 9.7 | 0.00 | 0.00 | 0.00 | 27 | 1016.4 |
| 20260502025815 | 18 | 261 | 6.4 | 6.4 | 0.00 | 0.00 | 0.00 | 26 | 1016.1 |
| 20260502025313 | 18 | 258 | 6.4 | 6.4 | 0.00 | 0.00 | 0.00 | 26 | 1016.2 |
| 20260502024810 | 18 | 250 | 6.4 | 6.4 | 0.00 | 0.00 | 0.00 | 26 | 1016.1 |
| 20260502024308 | 18 | 253 | 6.4 | 6.4 | 0.00 | 0.00 | 0.00 | 26 | 1016.1 |
| 20260502023806 | 18 | 249 | 6.4 | 6.4 | 0.00 | 0.00 | 0.00 | 26 | 1016.1 |
| 20260502023303 | 18 | 249 | 6.4 | 6.4 | 0.00 | 0.00 | 0.00 | 26 | 1015.9 |
| 20260502022800 | 18 | 250 | 6.4 | 6.4 | 0.00 | 0.00 | 0.00 | 25 | 1015.7 |
| 20260502022257 | 18 | 260 | 6.4 | 6.4 | 0.00 | 0.00 | 0.00 | 26 | 1015.9 |
| 20260502021754 | 18 | 262 | 8.0 | 9.7 | 0.00 | 0.00 | 0.00 | 25 | 1015.7 |
| 20260502021251 | 19 | 254 | 6.4 | 6.4 | 0.00 | 0.00 | 0.00 | 26 | 1016.1 |
| 20260502020748 | 19 | 259 | 6.4 | 6.4 | 0.00 | 0.00 | 0.00 | 26 | 1015.8 |
| 20260502020246 | 19 | 273 | 4.8 | 4.8 | 0.00 | 0.00 | 0.00 | 26 | 1015.8 |
| 20260502015743 | 19 | 251 | 6.4 | 6.4 | 0.00 | 0.00 | 0.00 | 25 | 1015.9 |
| 20260502015239 | 20 | 275 | 4.8 | 4.8 | 0.00 | 0.00 | 0.00 | 25 | 1015.8 |
| 20260502014737 | 20 | 286 | 4.8 | 4.8 | 0.00 | 0.00 | 0.00 | 25 | 1015.8 |
| 20260502014233 | 21 | 273 | 8.0 | 9.7 | 0.00 | 0.00 | 0.00 | 24 | 1015.8 |